sensor_id;sensor_type;location;lat;lon;timestamp;pressure;altitude;pressure_sealevel;temperature;humidity
50394;BME280;36308;46.312;25.288;2023-09-30T00:01:24;96689.09;;;11.11;59.62
50394;BME280;36308;46.312;25.288;2023-09-30T00:03:49;96697.22;;;11.16;59.63
50394;BME280;36308;46.312;25.288;2023-09-30T00:06:15;96696.09;;;11.12;60.08
50394;BME280;36308;46.312;25.288;2023-09-30T00:08:40;96688.19;;;11.05;59.78
50394;BME280;36308;46.312;25.288;2023-09-30T00:11:07;96693.91;;;11.09;59.91
50394;BME280;36308;46.312;25.288;2023-09-30T00:13:32;96685.25;;;11.07;60.58
50394;BME280;36308;46.312;25.288;2023-09-30T00:15:58;96685.50;;;11.05;60.35
50394;BME280;36308;46.312;25.288;2023-09-30T00:18:23;96688.41;;;11.04;60.28
50394;BME280;36308;46.312;25.288;2023-09-30T00:20:49;96682.47;;;11.02;60.03
50394;BME280;36308;46.312;25.288;2023-09-30T00:23:14;96681.09;;;10.99;60.10
50394;BME280;36308;46.312;25.288;2023-09-30T00:25:40;96686.47;;;10.99;60.08
50394;BME280;36308;46.312;25.288;2023-09-30T00:28:05;96684.00;;;10.98;60.15
50394;BME280;36308;46.312;25.288;2023-09-30T00:30:31;96682.31;;;10.91;60.63
50394;BME280;36308;46.312;25.288;2023-09-30T00:32:57;96680.69;;;10.90;60.44
50394;BME280;36308;46.312;25.288;2023-09-30T00:35:22;96682.56;;;10.90;60.61
50394;BME280;36308;46.312;25.288;2023-09-30T00:37:48;96687.13;;;10.89;60.69
50394;BME280;36308;46.312;25.288;2023-09-30T00:40:13;96677.06;;;10.85;60.88
50394;BME280;36308;46.312;25.288;2023-09-30T00:42:39;96678.72;;;10.86;60.67
50394;BME280;36308;46.312;25.288;2023-09-30T00:45:06;96681.06;;;10.82;60.51
50394;BME280;36308;46.312;25.288;2023-09-30T00:47:33;96683.75;;;10.82;60.53
50394;BME280;36308;46.312;25.288;2023-09-30T00:49:59;96671.84;;;10.78;60.68
50394;BME280;36308;46.312;25.288;2023-09-30T00:52:25;96680.75;;;10.79;60.99
50394;BME280;36308;46.312;25.288;2023-09-30T00:54:51;96673.16;;;10.76;60.48
50394;BME280;36308;46.312;25.288;2023-09-30T00:57:19;96667.69;;;10.70;60.90
50394;BME280;36308;46.312;25.288;2023-09-30T00:59:46;96661.91;;;10.62;61.33
50394;BME280;36308;46.312;25.288;2023-09-30T01:02:12;96670.63;;;10.69;60.90
50394;BME280;36308;46.312;25.288;2023-09-30T01:04:37;96683.50;;;10.67;60.87
50394;BME280;36308;46.312;25.288;2023-09-30T01:07:03;96678.59;;;10.64;60.76
50394;BME280;36308;46.312;25.288;2023-09-30T01:09:30;96669.03;;;10.56;61.20
50394;BME280;36308;46.312;25.288;2023-09-30T01:11:56;96670.47;;;10.59;61.34
50394;BME280;36308;46.312;25.288;2023-09-30T01:14:30;96673.53;;;10.50;61.16
50394;BME280;36308;46.312;25.288;2023-09-30T01:16:57;96681.34;;;10.52;61.25
50394;BME280;36308;46.312;25.288;2023-09-30T01:19:23;96674.25;;;10.46;61.46
50394;BME280;36308;46.312;25.288;2023-09-30T01:25:13;96668.34;;;10.32;61.81
50394;BME280;36308;46.312;25.288;2023-09-30T01:27:38;96673.59;;;10.27;61.98
50394;BME280;36308;46.312;25.288;2023-09-30T01:33:25;96669.16;;;10.21;62.16
50394;BME280;36308;46.312;25.288;2023-09-30T01:35:51;96675.38;;;10.21;62.04
50394;BME280;36308;46.312;25.288;2023-09-30T01:41:39;96663.72;;;10.16;62.80
50394;BME280;36308;46.312;25.288;2023-09-30T01:44:05;96659.38;;;10.15;62.51
50394;BME280;36308;46.312;25.288;2023-09-30T01:46:31;96653.44;;;10.12;62.81
50394;BME280;36308;46.312;25.288;2023-09-30T01:48:57;96666.97;;;10.18;62.78
50394;BME280;36308;46.312;25.288;2023-09-30T01:51:22;96663.94;;;10.14;61.82
50394;BME280;36308;46.312;25.288;2023-09-30T01:53:49;96658.56;;;10.14;61.98
50394;BME280;36308;46.312;25.288;2023-09-30T01:56:14;96661.25;;;10.14;62.38
50394;BME280;36308;46.312;25.288;2023-09-30T01:58:40;96659.88;;;10.11;62.11
50394;BME280;36308;46.312;25.288;2023-09-30T02:01:05;96658.22;;;10.10;62.02
50394;BME280;36308;46.312;25.288;2023-09-30T02:03:31;96652.53;;;10.07;62.27
50394;BME280;36308;46.312;25.288;2023-09-30T02:05:57;96657.34;;;10.05;62.08
50394;BME280;36308;46.312;25.288;2023-09-30T02:08:23;96646.81;;;10.03;62.41
50394;BME280;36308;46.312;25.288;2023-09-30T02:10:49;96650.56;;;10.02;62.26
50394;BME280;36308;46.312;25.288;2023-09-30T02:13:16;96659.66;;;10.01;61.92
50394;BME280;36308;46.312;25.288;2023-09-30T02:15:41;96648.84;;;9.96;62.76
50394;BME280;36308;46.312;25.288;2023-09-30T02:18:09;96650.09;;;9.94;62.77
50394;BME280;36308;46.312;25.288;2023-09-30T02:20:38;96649.53;;;9.91;62.29
50394;BME280;36308;46.312;25.288;2023-09-30T02:23:10;96661.44;;;9.96;62.34
50394;BME280;36308;46.312;25.288;2023-09-30T02:25:41;96646.25;;;9.89;62.25
50394;BME280;36308;46.312;25.288;2023-09-30T02:28:08;96656.19;;;9.89;62.62
50394;BME280;36308;46.312;25.288;2023-09-30T02:30:34;96657.84;;;9.90;62.13
50394;BME280;36308;46.312;25.288;2023-09-30T02:33:00;96654.00;;;9.86;62.78
50394;BME280;36308;46.312;25.288;2023-09-30T02:35:26;96639.78;;;9.74;61.92
50394;BME280;36308;46.312;25.288;2023-09-30T02:37:52;96645.03;;;9.80;62.18
50394;BME280;36308;46.312;25.288;2023-09-30T02:40:18;96654.69;;;9.81;62.20
50394;BME280;36308;46.312;25.288;2023-09-30T02:42:45;96653.53;;;9.77;62.38
50394;BME280;36308;46.312;25.288;2023-09-30T02:45:11;96655.41;;;9.77;62.42
50394;BME280;36308;46.312;25.288;2023-09-30T02:47:38;96658.59;;;9.74;62.58
50394;BME280;36308;46.312;25.288;2023-09-30T02:50:08;96643.41;;;9.67;62.14
50394;BME280;36308;46.312;25.288;2023-09-30T02:52:36;96651.22;;;9.69;62.31
50394;BME280;36308;46.312;25.288;2023-09-30T02:55:04;96648.78;;;9.67;62.16
50394;BME280;36308;46.312;25.288;2023-09-30T02:57:30;96650.53;;;9.62;62.41
50394;BME280;36308;46.312;25.288;2023-09-30T02:59:56;96651.84;;;9.59;62.46
50394;BME280;36308;46.312;25.288;2023-09-30T03:02:22;96647.50;;;9.58;62.72
50394;BME280;36308;46.312;25.288;2023-09-30T03:04:47;96650.69;;;9.55;62.85
50394;BME280;36308;46.312;25.288;2023-09-30T03:07:15;96646.34;;;9.54;62.28
50394;BME280;36308;46.312;25.288;2023-09-30T03:09:41;96636.53;;;9.48;62.90
50394;BME280;36308;46.312;25.288;2023-09-30T03:12:07;96642.19;;;9.46;62.30
50394;BME280;36308;46.312;25.288;2023-09-30T03:14:34;96648.34;;;9.47;62.70
50394;BME280;36308;46.312;25.288;2023-09-30T03:16:59;96646.13;;;9.44;62.82
50394;BME280;36308;46.312;25.288;2023-09-30T03:19:25;96652.56;;;9.43;62.49
50394;BME280;36308;46.312;25.288;2023-09-30T03:21:50;96650.31;;;9.40;62.46
50394;BME280;36308;46.312;25.288;2023-09-30T03:24:16;96644.38;;;9.38;62.49
50394;BME280;36308;46.312;25.288;2023-09-30T03:26:42;96657.22;;;9.36;62.79
50394;BME280;36308;46.312;25.288;2023-09-30T03:29:08;96644.28;;;9.33;62.97
50394;BME280;36308;46.312;25.288;2023-09-30T03:31:37;96652.56;;;9.31;62.86
50394;BME280;36308;46.312;25.288;2023-09-30T03:34:03;96645.22;;;9.26;63.10
50394;BME280;36308;46.312;25.288;2023-09-30T03:36:29;96646.25;;;9.25;63.36
50394;BME280;36308;46.312;25.288;2023-09-30T03:38:56;96638.09;;;9.20;63.12
50394;BME280;36308;46.312;25.288;2023-09-30T03:41:24;96643.47;;;9.20;62.90
50394;BME280;36308;46.312;25.288;2023-09-30T03:43:49;96641.81;;;9.19;62.84
50394;BME280;36308;46.312;25.288;2023-09-30T03:46:15;96648.47;;;9.17;62.89
50394;BME280;36308;46.312;25.288;2023-09-30T03:48:41;96637.63;;;9.12;62.76
50394;BME280;36308;46.312;25.288;2023-09-30T03:51:10;96648.13;;;9.13;63.12
50394;BME280;36308;46.312;25.288;2023-09-30T03:53:39;96649.19;;;9.12;63.63
50394;BME280;36308;46.312;25.288;2023-09-30T03:56:05;96648.59;;;9.10;63.28
50394;BME280;36308;46.312;25.288;2023-09-30T03:58:32;96646.38;;;9.07;63.43
50394;BME280;36308;46.312;25.288;2023-09-30T04:00:58;96645.81;;;9.05;62.85
50394;BME280;36308;46.312;25.288;2023-09-30T04:03:26;96655.69;;;9.04;62.82
50394;BME280;36308;46.312;25.288;2023-09-30T04:05:53;96653.28;;;9.03;63.76
50394;BME280;36308;46.312;25.288;2023-09-30T04:08:18;96645.09;;;8.98;63.91
50394;BME280;36308;46.312;25.288;2023-09-30T04:10:44;96648.34;;;9.00;63.03
50394;BME280;36308;46.312;25.288;2023-09-30T04:13:10;96645.09;;;8.98;63.54
50394;BME280;36308;46.312;25.288;2023-09-30T04:15:37;96646.38;;;8.95;63.45
50394;BME280;36308;46.312;25.288;2023-09-30T04:18:03;96641.00;;;8.95;64.01
50394;BME280;36308;46.312;25.288;2023-09-30T04:20:31;96657.09;;;8.95;63.79
50394;BME280;36308;46.312;25.288;2023-09-30T04:22:57;96644.97;;;8.93;63.74
50394;BME280;36308;46.312;25.288;2023-09-30T04:25:23;96655.94;;;8.91;63.96
50394;BME280;36308;46.312;25.288;2023-09-30T04:27:52;96660.47;;;8.90;64.30
50394;BME280;36308;46.312;25.288;2023-09-30T04:30:18;96657.22;;;8.88;64.06
50394;BME280;36308;46.312;25.288;2023-09-30T04:32:43;96657.22;;;8.88;63.56
50394;BME280;36308;46.312;25.288;2023-09-30T04:35:09;96659.31;;;8.86;64.20
50394;BME280;36308;46.312;25.288;2023-09-30T04:37:35;96662.56;;;8.88;63.50
50394;BME280;36308;46.312;25.288;2023-09-30T04:40:06;96659.75;;;8.83;63.57
50394;BME280;36308;46.312;25.288;2023-09-30T04:42:34;96660.22;;;8.80;64.33
50394;BME280;36308;46.312;25.288;2023-09-30T04:45:03;96665.94;;;8.84;64.51
50394;BME280;36308;46.312;25.288;2023-09-30T04:47:29;96656.38;;;8.76;64.16
50394;BME280;36308;46.312;25.288;2023-09-30T04:49:54;96657.56;;;8.80;64.15
50394;BME280;36308;46.312;25.288;2023-09-30T04:52:20;96667.22;;;8.81;64.33
50394;BME280;36308;46.312;25.288;2023-09-30T04:54:45;96669.31;;;8.79;64.45
50394;BME280;36308;46.312;25.288;2023-09-30T04:57:11;96670.38;;;8.78;64.81
50394;BME280;36308;46.312;25.288;2023-09-30T04:59:36;96670.59;;;8.77;64.88
50394;BME280;36308;46.312;25.288;2023-09-30T05:02:02;96668.59;;;8.72;64.68
50394;BME280;36308;46.312;25.288;2023-09-30T05:04:29;96671.50;;;8.70;64.52
50394;BME280;36308;46.312;25.288;2023-09-30T05:06:55;96672.22;;;8.66;64.58
50394;BME280;36308;46.312;25.288;2023-09-30T05:09:20;96672.44;;;8.64;64.56
50394;BME280;36308;46.312;25.288;2023-09-30T05:11:46;96669.16;;;8.62;65.20
50394;BME280;36308;46.312;25.288;2023-09-30T05:14:11;96668.34;;;8.62;65.09
50394;BME280;36308;46.312;25.288;2023-09-30T05:16:37;96675.34;;;8.63;64.98
50394;BME280;36308;46.312;25.288;2023-09-30T05:19:02;96678.97;;;8.68;65.90
50394;BME280;36308;46.312;25.288;2023-09-30T05:21:30;96679.34;;;8.72;65.64
50394;BME280;36308;46.312;25.288;2023-09-30T05:23:55;96678.84;;;8.75;65.43
50394;BME280;36308;46.312;25.288;2023-09-30T05:26:21;96673.28;;;8.77;65.71
50394;BME280;36308;46.312;25.288;2023-09-30T05:28:47;96681.22;;;8.83;66.32
50394;BME280;36308;46.312;25.288;2023-09-30T05:31:12;96681.09;;;8.90;65.57
50394;BME280;36308;46.312;25.288;2023-09-30T05:33:38;96678.19;;;8.92;66.18
50394;BME280;36308;46.312;25.288;2023-09-30T05:36:04;96681.59;;;8.99;66.42
50394;BME280;36308;46.312;25.288;2023-09-30T05:38:29;96681.72;;;9.04;66.85
50394;BME280;36308;46.312;25.288;2023-09-30T05:40:56;96677.88;;;9.12;66.23
50394;BME280;36308;46.312;25.288;2023-09-30T05:43:24;96683.34;;;9.17;66.57
50394;BME280;36308;46.312;25.288;2023-09-30T05:45:50;96687.56;;;9.24;66.34
50394;BME280;36308;46.312;25.288;2023-09-30T05:48:20;96687.06;;;9.27;66.44
50394;BME280;36308;46.312;25.288;2023-09-30T05:50:46;96691.78;;;9.32;66.52
50394;BME280;36308;46.312;25.288;2023-09-30T05:53:12;96690.00;;;9.38;67.12
50394;BME280;36308;46.312;25.288;2023-09-30T05:55:38;96690.34;;;9.41;66.27
50394;BME280;36308;46.312;25.288;2023-09-30T05:58:04;96691.41;;;9.52;66.15
50394;BME280;36308;46.312;25.288;2023-09-30T06:00:30;96697.25;;;9.61;66.39
50394;BME280;36308;46.312;25.288;2023-09-30T06:02:57;96692.56;;;9.68;65.85
50394;BME280;36308;46.312;25.288;2023-09-30T06:05:22;96683.78;;;9.73;66.59
50394;BME280;36308;46.312;25.288;2023-09-30T06:07:49;96690.53;;;9.87;65.99
50394;BME280;36308;46.312;25.288;2023-09-30T06:10:15;96687.47;;;9.95;66.55
50394;BME280;36308;46.312;25.288;2023-09-30T06:12:47;96692.25;;;10.05;66.33
50394;BME280;36308;46.312;25.288;2023-09-30T06:18:35;96682.22;;;10.29;65.22
50394;BME280;36308;46.312;25.288;2023-09-30T06:21:00;96682.47;;;10.39;64.89
50394;BME280;36308;46.312;25.288;2023-09-30T06:23:25;96690.47;;;10.51;65.60
50394;BME280;36308;46.312;25.288;2023-09-30T06:25:51;96684.47;;;10.61;64.73
50394;BME280;36308;46.312;25.288;2023-09-30T06:28:16;96678.13;;;10.67;64.81
50394;BME280;36308;46.312;25.288;2023-09-30T06:30:42;96686.44;;;10.82;64.80
50394;BME280;36308;46.312;25.288;2023-09-30T06:33:10;96690.97;;;10.94;64.92
50394;BME280;36308;46.312;25.288;2023-09-30T06:35:40;96683.59;;;11.06;65.13
50394;BME280;36308;46.312;25.288;2023-09-30T06:38:16;96673.09;;;11.04;64.38
50394;BME280;36308;46.312;25.288;2023-09-30T06:40:42;96683.34;;;11.24;64.45
50394;BME280;36308;46.312;25.288;2023-09-30T06:43:08;96684.66;;;11.39;63.91
50394;BME280;36308;46.312;25.288;2023-09-30T06:45:33;96683.19;;;11.48;63.35
50394;BME280;36308;46.312;25.288;2023-09-30T06:47:59;96685.53;;;11.61;63.78
50394;BME280;36308;46.312;25.288;2023-09-30T06:50:24;96685.41;;;11.73;63.28
50394;BME280;36308;46.312;25.288;2023-09-30T06:52:50;96671.19;;;11.78;63.21
50394;BME280;36308;46.312;25.288;2023-09-30T06:55:16;96678.50;;;11.99;62.95
50394;BME280;36308;46.312;25.288;2023-09-30T06:57:44;96683.53;;;12.12;63.26
50394;BME280;36308;46.312;25.288;2023-09-30T07:00:11;96694.47;;;12.28;62.41
50394;BME280;36308;46.312;25.288;2023-09-30T07:02:38;96683.56;;;12.40;62.20
50394;BME280;36308;46.312;25.288;2023-09-30T07:05:09;96685.59;;;12.54;62.46
50394;BME280;36308;46.312;25.288;2023-09-30T07:07:35;96681.44;;;12.69;62.13
50394;BME280;36308;46.312;25.288;2023-09-30T07:10:00;96674.50;;;12.78;62.05
50394;BME280;36308;46.312;25.288;2023-09-30T07:12:26;96677.94;;;13.01;62.11
50394;BME280;36308;46.312;25.288;2023-09-30T07:14:53;96679.13;;;13.15;61.34
50394;BME280;36308;46.312;25.288;2023-09-30T07:17:18;96676.88;;;13.34;61.02
50394;BME280;36308;46.312;25.288;2023-09-30T07:19:44;96680.75;;;13.48;60.28
50394;BME280;36308;46.312;25.288;2023-09-30T07:22:09;96669.19;;;13.58;59.98
50394;BME280;36308;46.312;25.288;2023-09-30T07:24:35;96688.78;;;13.81;60.00
50394;BME280;36308;46.312;25.288;2023-09-30T07:27:00;96678.59;;;13.98;59.58
50394;BME280;36308;46.312;25.288;2023-09-30T07:29:26;96683.00;;;14.14;59.37
50394;BME280;36308;46.312;25.288;2023-09-30T07:31:51;96686.31;;;14.32;59.29
50394;BME280;36308;46.312;25.288;2023-09-30T07:34:16;96677.69;;;14.50;59.29
50394;BME280;36308;46.312;25.288;2023-09-30T07:36:42;96672.91;;;14.68;59.04
50394;BME280;36308;46.312;25.288;2023-09-30T07:39:08;96669.69;;;14.86;58.34
50394;BME280;36308;46.312;25.288;2023-09-30T07:41:36;96672.94;;;15.04;57.93
50394;BME280;36308;46.312;25.288;2023-09-30T07:44:02;96673.22;;;15.23;57.49
50394;BME280;36308;46.312;25.288;2023-09-30T07:46:28;96679.41;;;15.44;56.98
50394;BME280;36308;46.312;25.288;2023-09-30T07:48:53;96676.13;;;15.62;56.66
50394;BME280;36308;46.312;25.288;2023-09-30T07:51:20;96675.84;;;15.79;55.85
50394;BME280;36308;46.312;25.288;2023-09-30T07:53:46;96680.41;;;15.99;54.88
50394;BME280;36308;46.312;25.288;2023-09-30T07:56:11;96676.84;;;16.14;54.47
50394;BME280;36308;46.312;25.288;2023-09-30T07:58:37;96673.75;;;16.36;54.13
50394;BME280;36308;46.312;25.288;2023-09-30T08:01:02;96679.34;;;16.60;53.53
50394;BME280;36308;46.312;25.288;2023-09-30T08:03:28;96677.88;;;16.78;53.19
50394;BME280;36308;46.312;25.288;2023-09-30T08:05:53;96669.13;;;16.91;53.05
50394;BME280;36308;46.312;25.288;2023-09-30T08:08:19;96675.16;;;17.17;52.48
50394;BME280;36308;46.312;25.288;2023-09-30T08:10:44;96670.38;;;17.38;52.12
50394;BME280;36308;46.312;25.288;2023-09-30T08:13:10;96669.66;;;17.57;51.88
50394;BME280;36308;46.312;25.288;2023-09-30T08:15:35;96667.84;;;17.76;51.62
50394;BME280;36308;46.312;25.288;2023-09-30T08:18:03;96662.19;;;17.97;51.47
50394;BME280;36308;46.312;25.288;2023-09-30T08:20:29;96660.34;;;18.16;50.76
50394;BME280;36308;46.312;25.288;2023-09-30T08:22:55;96657.88;;;18.39;50.24
50394;BME280;36308;46.312;25.288;2023-09-30T08:25:21;96658.41;;;18.60;49.81
50394;BME280;36308;46.312;25.288;2023-09-30T08:27:46;96651.91;;;18.80;49.32
50394;BME280;36308;46.312;25.288;2023-09-30T08:30:15;96650.19;;;19.03;48.44
50394;BME280;36308;46.312;25.288;2023-09-30T08:32:40;96659.94;;;19.23;48.36
50394;BME280;36308;46.312;25.288;2023-09-30T08:35:06;96659.00;;;19.47;47.48
50394;BME280;36308;46.312;25.288;2023-09-30T08:37:32;96645.72;;;19.73;47.31
50394;BME280;36308;46.312;25.288;2023-09-30T08:39:59;96647.06;;;20.03;46.71
50394;BME280;36308;46.312;25.288;2023-09-30T08:42:26;96650.88;;;20.44;46.11
50394;BME280;36308;46.312;25.288;2023-09-30T08:44:55;96651.91;;;20.84;45.65
50394;BME280;36308;46.312;25.288;2023-09-30T08:47:20;96653.19;;;21.23;44.00
50394;BME280;36308;46.312;25.288;2023-09-30T08:49:48;96642.31;;;21.54;42.63
50394;BME280;36308;46.312;25.288;2023-09-30T08:52:16;96637.91;;;21.76;42.00
50394;BME280;36308;46.312;25.288;2023-09-30T08:54:42;96626.22;;;21.93;41.75
50394;BME280;36308;46.312;25.288;2023-09-30T08:57:09;96638.22;;;22.14;41.76
50394;BME280;36308;46.312;25.288;2023-09-30T08:59:35;96642.63;;;22.33;41.24
50394;BME280;36308;46.312;25.288;2023-09-30T09:02:08;96646.88;;;22.56;40.91
50394;BME280;36308;46.312;25.288;2023-09-30T09:04:38;96642.69;;;22.76;40.49
50394;BME280;36308;46.312;25.288;2023-09-30T09:07:03;96638.19;;;22.98;39.23
50394;BME280;36308;46.312;25.288;2023-09-30T09:09:29;96641.31;;;23.14;39.05
50394;BME280;36308;46.312;25.288;2023-09-30T09:11:55;96632.72;;;23.33;38.63
50394;BME280;36308;46.312;25.288;2023-09-30T09:14:40;96632.84;;;23.54;38.59
50394;BME280;36308;46.312;25.288;2023-09-30T09:17:07;96631.97;;;23.79;38.61
50394;BME280;36308;46.312;25.288;2023-09-30T09:19:34;96627.03;;;24.03;38.23
50394;BME280;36308;46.312;25.288;2023-09-30T09:22:00;96638.38;;;24.31;37.74
50394;BME280;36308;46.312;25.288;2023-09-30T09:24:37;96631.44;;;24.54;37.07
50394;BME280;36308;46.312;25.288;2023-09-30T09:27:13;96621.94;;;24.73;37.13
50394;BME280;36308;46.312;25.288;2023-09-30T09:29:42;96635.38;;;24.95;36.05
50394;BME280;36308;46.312;25.288;2023-09-30T09:32:11;96638.16;;;25.08;36.01
50394;BME280;36308;46.312;25.288;2023-09-30T09:34:38;96632.72;;;25.20;35.56
50394;BME280;36308;46.312;25.288;2023-09-30T09:39:56;96626.19;;;25.46;34.45
50394;BME280;36308;46.312;25.288;2023-09-30T09:42:30;96629.91;;;25.62;34.81
50394;BME280;36308;46.312;25.288;2023-09-30T09:44:59;96630.38;;;25.76;34.05
50394;BME280;36308;46.312;25.288;2023-09-30T09:47:25;96629.16;;;25.86;34.26
50394;BME280;36308;46.312;25.288;2023-09-30T09:49:52;96616.22;;;25.99;34.29
50394;BME280;36308;46.312;25.288;2023-09-30T09:52:20;96603.56;;;26.10;34.04
50394;BME280;36308;46.312;25.288;2023-09-30T09:54:46;96608.03;;;26.27;33.97
50394;BME280;36308;46.312;25.288;2023-09-30T09:57:12;96609.06;;;26.47;33.95
50394;BME280;36308;46.312;25.288;2023-09-30T09:59:42;96610.69;;;26.60;32.83
50394;BME280;36308;46.312;25.288;2023-09-30T10:02:11;96613.84;;;26.75;32.68
50394;BME280;36308;46.312;25.288;2023-09-30T10:04:43;96609.22;;;26.91;32.55
50394;BME280;36308;46.312;25.288;2023-09-30T10:07:33;96611.25;;;27.07;32.60
50394;BME280;36308;46.312;25.288;2023-09-30T10:10:01;96615.22;;;27.21;32.61
50394;BME280;36308;46.312;25.288;2023-09-30T10:12:28;96610.00;;;27.32;32.73
50394;BME280;36308;46.312;25.288;2023-09-30T10:15:00;96592.81;;;27.39;32.89
50394;BME280;36308;46.312;25.288;2023-09-30T10:17:58;96597.25;;;27.56;32.82
50394;BME280;36308;46.312;25.288;2023-09-30T10:20:28;96596.00;;;27.69;32.00
50394;BME280;36308;46.312;25.288;2023-09-30T10:25:51;96589.16;;;27.79;30.76
50394;BME280;36308;46.312;25.288;2023-09-30T10:31:14;96582.34;;;27.76;30.61
50394;BME280;36308;46.312;25.288;2023-09-30T10:36:28;96560.38;;;27.96;31.73
50394;BME280;36308;46.312;25.288;2023-09-30T10:38:54;96566.25;;;28.10;31.42
50394;BME280;36308;46.312;25.288;2023-09-30T10:46:48;96570.16;;;28.60;30.42
50394;BME280;36308;46.312;25.288;2023-09-30T10:51:51;96557.59;;;28.83;29.89
50394;BME280;36308;46.312;25.288;2023-09-30T10:54:22;96556.19;;;28.92;29.19
50394;BME280;36308;46.312;25.288;2023-09-30T10:56:51;96555.16;;;29.00;29.66
50394;BME280;36308;46.312;25.288;2023-09-30T10:59:27;96559.69;;;29.09;29.51
50394;BME280;36308;46.312;25.288;2023-09-30T11:01:55;96555.47;;;29.15;29.56
50394;BME280;36308;46.312;25.288;2023-09-30T11:04:21;96545.78;;;29.25;29.35
50394;BME280;36308;46.312;25.288;2023-09-30T11:06:47;96539.56;;;29.31;29.02
50394;BME280;36308;46.312;25.288;2023-09-30T11:09:17;96542.88;;;29.40;29.11
50394;BME280;36308;46.312;25.288;2023-09-30T11:11:50;96532.66;;;29.45;29.04
50394;BME280;36308;46.312;25.288;2023-09-30T11:14:26;96540.38;;;29.55;28.89
50394;BME280;36308;46.312;25.288;2023-09-30T11:16:57;96537.31;;;29.60;28.87
50394;BME280;36308;46.312;25.288;2023-09-30T11:22:46;96541.06;;;29.71;28.65
50394;BME280;36308;46.312;25.288;2023-09-30T11:25:16;96538.00;;;29.76;28.06
50394;BME280;36308;46.312;25.288;2023-09-30T11:27:43;96525.00;;;29.80;28.22
50394;BME280;36308;46.312;25.288;2023-09-30T11:30:09;96518.34;;;29.85;28.17
50394;BME280;36308;46.312;25.288;2023-09-30T11:32:34;96509.66;;;29.87;28.03
50394;BME280;36308;46.312;25.288;2023-09-30T11:35:00;96535.22;;;29.99;28.29
50394;BME280;36308;46.312;25.288;2023-09-30T11:37:32;96526.94;;;30.03;28.07
50394;BME280;36308;46.312;25.288;2023-09-30T11:40:12;96514.38;;;30.09;28.13
50394;BME280;36308;46.312;25.288;2023-09-30T11:42:39;96514.78;;;30.11;27.45
50394;BME280;36308;46.312;25.288;2023-09-30T11:45:19;96511.63;;;30.13;27.71
50394;BME280;36308;46.312;25.288;2023-09-30T11:47:45;96510.91;;;30.16;28.58
50394;BME280;36308;46.312;25.288;2023-09-30T11:50:11;96508.16;;;30.19;28.35
50394;BME280;36308;46.312;25.288;2023-09-30T11:52:38;96511.78;;;30.23;28.19
50394;BME280;36308;46.312;25.288;2023-09-30T11:55:05;96505.50;;;30.27;28.18
50394;BME280;36308;46.312;25.288;2023-09-30T11:57:31;96500.81;;;30.31;28.19
50394;BME280;36308;46.312;25.288;2023-09-30T11:59:56;96505.19;;;30.32;27.98
50394;BME280;36308;46.312;25.288;2023-09-30T12:02:22;96498.47;;;30.33;28.05
50394;BME280;36308;46.312;25.288;2023-09-30T12:04:47;96494.94;;;30.36;28.19
50394;BME280;36308;46.312;25.288;2023-09-30T12:07:13;96492.94;;;30.33;27.83
50394;BME280;36308;46.312;25.288;2023-09-30T12:09:38;96487.81;;;30.35;28.23
50394;BME280;36308;46.312;25.288;2023-09-30T12:12:05;96490.59;;;30.35;28.07
50394;BME280;36308;46.312;25.288;2023-09-30T12:14:34;96489.81;;;30.38;27.89
50394;BME280;36308;46.312;25.288;2023-09-30T12:17:00;96491.44;;;30.39;27.27
50394;BME280;36308;46.312;25.288;2023-09-30T12:19:26;96485.47;;;30.37;27.21
50394;BME280;36308;46.312;25.288;2023-09-30T12:24:36;96473.09;;;30.31;27.41
50394;BME280;36308;46.312;25.288;2023-09-30T12:27:02;96480.66;;;30.34;27.01
50394;BME280;36308;46.312;25.288;2023-09-30T12:29:28;96482.25;;;30.35;27.52
50394;BME280;36308;46.312;25.288;2023-09-30T12:31:53;96478.31;;;30.36;27.19
50394;BME280;36308;46.312;25.288;2023-09-30T12:34:19;96476.72;;;30.35;27.01
50394;BME280;36308;46.312;25.288;2023-09-30T12:36:44;96478.31;;;30.36;27.28
50394;BME280;36308;46.312;25.288;2023-09-30T12:39:10;96465.94;;;30.30;26.98
50394;BME280;36308;46.312;25.288;2023-09-30T12:41:37;96448.34;;;30.18;26.65
50394;BME280;36308;46.312;25.288;2023-09-30T12:44:03;96461.13;;;30.27;26.88
50394;BME280;36308;46.312;25.288;2023-09-30T12:46:29;96457.00;;;30.13;26.50
50394;BME280;36308;46.312;25.288;2023-09-30T12:48:54;96464.91;;;30.15;26.45
50394;BME280;36308;46.312;25.288;2023-09-30T12:51:20;96465.63;;;30.08;26.51
50394;BME280;36308;46.312;25.288;2023-09-30T12:53:45;96457.94;;;29.98;25.97
50394;BME280;36308;46.312;25.288;2023-09-30T12:56:11;96460.66;;;29.94;27.04
50394;BME280;36308;46.312;25.288;2023-09-30T12:58:36;96450.28;;;29.88;27.40
50394;BME280;36308;46.312;25.288;2023-09-30T13:01:03;96448.69;;;29.87;27.20
50394;BME280;36308;46.312;25.288;2023-09-30T13:03:29;96459.28;;;29.81;27.29
50394;BME280;36308;46.312;25.288;2023-09-30T13:05:54;96444.53;;;29.73;27.06
50394;BME280;36308;46.312;25.288;2023-09-30T13:08:20;96450.31;;;29.65;27.93
50394;BME280;36308;46.312;25.288;2023-09-30T13:10:45;96445.88;;;29.60;27.58
50394;BME280;36308;46.312;25.288;2023-09-30T13:13:13;96445.03;;;29.56;28.16
50394;BME280;36308;46.312;25.288;2023-09-30T13:15:38;96440.22;;;29.53;28.26
50394;BME280;36308;46.312;25.288;2023-09-30T13:18:04;96442.97;;;29.53;27.90
50394;BME280;36308;46.312;25.288;2023-09-30T13:20:31;96430.63;;;29.47;27.63
50394;BME280;36308;46.312;25.288;2023-09-30T13:22:57;96435.38;;;29.46;27.87
50394;BME280;36308;46.312;25.288;2023-09-30T13:25:24;96429.75;;;29.42;27.82
50394;BME280;36308;46.312;25.288;2023-09-30T13:27:51;96427.31;;;29.37;27.74
50394;BME280;36308;46.312;25.288;2023-09-30T13:30:17;96425.69;;;29.36;27.80